Time;durP1;ratioP1;P1;durP2;ratioP2;P2;SDS_P1;SDS_P2;PMS_P1;PMS_P2;Temp;Humidity;BMP_temperature;BMP_pressure;BME280_temperature;BME280_humidity;BME280_pressure;Samples;Min_cycle;Max_cycle;Signal;HPM_P1;HPM_P2
2022/07/03 00:01:03;;;;;;;2.55;1.55;;;20.20;69.50;;;;;;5041805;28;20029;-46
2022/07/03 00:03:29;;;;;;;5.05;1.48;;;20.20;69.80;;;;;;5050984;28;20021;-48
2022/07/03 00:05:54;;;;;;;2.45;1.50;;;20.30;69.50;;;;;;5050760;28;20160;-45
2022/07/03 00:08:20;;;;;;;3.60;1.23;;;20.20;69.50;;;;;;5051763;28;20028;-49
2022/07/03 00:10:46;;;;;;;1.80;1.10;;;20.30;69.60;;;;;;5046811;28;20025;-46
2022/07/03 00:13:11;;;;;;;1.63;1.48;;;20.30;69.30;;;;;;5045537;28;20497;-45
2022/07/03 00:15:38;;;;;;;1.90;1.38;;;20.30;69.30;;;;;;5044184;28;20114;-47
2022/07/03 00:18:04;;;;;;;2.80;1.52;;;20.40;69.00;;;;;;5042829;28;20401;-46
2022/07/03 00:20:34;;;;;;;2.83;1.63;;;20.40;68.80;;;;;;5051426;28;20109;-47
2022/07/03 00:23:03;;;;;;;3.70;1.38;;;20.40;68.50;;;;;;5051288;28;20017;-48
2022/07/03 00:25:29;;;;;;;3.00;1.58;;;20.40;68.90;;;;;;5038850;28;20112;-48
2022/07/03 00:27:55;;;;;;;3.22;1.50;;;20.40;68.50;;;;;;5051072;28;20033;-46
2022/07/03 00:30:21;;;;;;;2.67;1.67;;;20.40;68.60;;;;;;5051208;28;20031;-46
2022/07/03 00:32:48;;;;;;;3.28;1.60;;;20.40;68.60;;;;;;5049966;28;20036;-46
2022/07/03 00:35:17;;;;;;;1.70;1.48;;;20.40;68.40;;;;;;5050177;28;20029;-47
2022/07/03 00:37:43;;;;;;;2.67;1.35;;;20.40;68.60;;;;;;5050976;28;20017;-46
2022/07/03 00:40:09;;;;;;;3.15;1.30;;;20.40;68.60;;;;;;5049728;28;20031;-46
2022/07/03 00:42:39;;;;;;;3.05;1.60;;;20.40;68.80;;;;;;5050973;28;20037;-48
2022/07/03 00:45:07;;;;;;;4.93;1.50;;;20.40;68.70;;;;;;5050408;28;20094;-48
2022/07/03 00:47:36;;;;;;;2.72;1.30;;;20.40;68.70;;;;;;5050484;28;20072;-47
2022/07/03 00:50:07;;;;;;;3.08;1.35;;;20.30;68.70;;;;;;5050149;28;20418;-46
2022/07/03 00:52:33;;;;;;;2.63;1.20;;;20.30;68.70;;;;;;5050440;28;20033;-46
2022/07/03 00:55:00;;;;;;;1.55;1.45;;;20.30;68.80;;;;;;5043335;28;20018;-46
2022/07/03 00:57:28;;;;;;;4.43;1.55;;;20.20;69.10;;;;;;5046514;28;20025;-47
2022/07/03 00:59:54;;;;;;;2.33;1.73;;;20.20;69.10;;;;;;5050399;28;20017;-48
2022/07/03 01:02:34;;;;;;;1.75;1.25;;;20.10;69.30;;;;;;5050331;28;20056;-47
2022/07/03 01:05:08;;;;;;;1.60;1.50;;;20.20;69.50;;;;;;5049371;28;20478;-47
2022/07/03 01:07:51;;;;;;;7.65;2.15;;;20.10;69.60;;;;;;5050175;28;20550;-49
2022/07/03 01:10:37;;;;;;;1.52;1.33;;;20.10;69.70;;;;;;5050847;28;20025;-47
2022/07/03 01:13:13;;;;;;;2.55;1.40;;;20.10;70.00;;;;;;5050278;28;20033;-48
2022/07/03 01:16:05;;;;;;;2.53;1.70;;;20.10;70.20;;;;;;5049316;28;20021;-46
2022/07/03 01:18:59;;;;;;;2.53;1.52;;;20.10;70.30;;;;;;5049722;28;20052;-49
2022/07/03 01:21:41;;;;;;;4.93;1.70;;;20.10;70.70;;;;;;5049982;28;20052;-48
2022/07/03 01:24:43;;;;;;;2.00;1.40;;;20.00;71.10;;;;;;5047047;28;20267;-47
2022/07/03 01:27:18;;;;;;;2.60;1.73;;;20.00;72.20;;;;;;5037809;28;20029;-46
2022/07/03 01:30:05;;;;;;;1.50;1.40;;;19.90;73.10;;;;;;5049807;28;20067;-47
2022/07/03 01:32:42;;;;;;;1.88;1.70;;;19.90;72.80;;;;;;5049866;28;20029;-47
2022/07/03 01:35:11;;;;;;;3.10;1.90;;;19.80;73.20;;;;;;5048788;28;20063;-47
2022/07/03 01:37:40;;;;;;;3.78;1.70;;;19.80;73.50;;;;;;5049669;28;20025;-46
2022/07/03 01:40:06;;;;;;;1.77;1.63;;;19.70;73.70;;;;;;5049691;28;20017;-48
2022/07/03 01:42:34;;;;;;;2.40;1.52;;;19.60;73.80;;;;;;5049871;28;20021;-47
2022/07/03 01:45:00;;;;;;;2.40;1.90;;;19.50;74.10;;;;;;5048723;28;20025;-46
2022/07/03 01:47:26;;;;;;;2.58;1.55;;;19.50;74.90;;;;;;5049482;28;20505;-46
2022/07/03 01:49:53;;;;;;;3.17;1.70;;;19.40;74.90;;;;;;5047874;28;20059;-46
2022/07/03 01:52:20;;;;;;;1.95;1.85;;;19.40;75.30;;;;;;5049689;28;20040;-47
2022/07/03 01:54:47;;;;;;;2.33;1.60;;;19.30;75.50;;;;;;5043742;28;20032;-48
2022/07/03 01:57:12;;;;;;;2.30;1.58;;;19.20;77.20;;;;;;5043640;28;20024;-47
2022/07/03 01:59:38;;;;;;;3.03;1.80;;;19.10;77.00;;;;;;5049195;28;20025;-46
2022/07/03 02:02:24;;;;;;;5.47;2.20;;;19.10;76.50;;;;;;5049235;28;20028;-46
2022/07/03 02:05:15;;;;;;;2.38;1.80;;;19.10;76.50;;;;;;5048367;28;20171;-46
2022/07/03 02:07:50;;;;;;;2.95;1.77;;;19.00;76.80;;;;;;5049300;28;20025;-46
2022/07/03 02:10:22;;;;;;;2.13;1.77;;;19.00;77.30;;;;;;5034238;28;20041;-46
2022/07/03 02:12:51;;;;;;;3.55;1.77;;;19.00;77.50;;;;;;5017987;28;20065;-47
2022/07/03 02:15:24;;;;;;;2.63;2.05;;;19.00;78.10;;;;;;5019825;28;20068;-46
2022/07/03 02:17:53;;;;;;;3.85;1.90;;;18.90;77.80;;;;;;5017550;28;20065;-47
2022/07/03 02:20:19;;;;;;;2.55;1.92;;;18.90;78.70;;;;;;5018745;28;20037;-47
2022/07/03 02:22:58;;;;;;;2.40;1.90;;;18.80;79.70;;;;;;5017591;28;20450;-46
2022/07/03 02:25:33;;;;;;;2.30;1.98;;;18.80;79.00;;;;;;5024017;28;20028;-47
2022/07/03 02:28:10;;;;;;;2.20;2.10;;;18.80;78.50;;;;;;5019972;28;20056;-49
2022/07/03 02:30:41;;;;;;;3.53;2.25;;;18.70;79.50;;;;;;5019917;28;20049;-47
2022/07/03 02:33:10;;;;;;;2.30;2.10;;;18.80;78.80;;;;;;5019656;28;20037;-47
2022/07/03 02:35:36;;;;;;;2.53;1.98;;;18.80;79.50;;;;;;5017412;28;20029;-47
2022/07/03 02:38:31;;;;;;;4.78;2.42;;;18.80;78.80;;;;;;5018323;28;20026;-46
2022/07/03 02:41:12;;;;;;;4.47;2.20;;;18.80;78.50;;;;;;5008986;28;20096;-47
2022/07/03 02:44:02;;;;;;;3.83;2.22;;;18.80;78.60;;;;;;5019563;28;20030;-46
2022/07/03 02:46:54;;;;;;;3.78;2.10;;;18.80;78.80;;;;;;5017871;28;20028;-46
2022/07/03 02:49:31;;;;;;;4.38;2.42;;;18.80;78.80;;;;;;5019221;28;20034;-46
2022/07/03 02:52:18;;;;;;;4.32;2.22;;;18.80;79.10;;;;;;5016602;28;20026;-46
2022/07/03 02:54:47;;;;;;;4.35;2.20;;;18.80;79.40;;;;;;5024688;28;20069;-47
2022/07/03 02:57:16;;;;;;;3.53;2.22;;;18.70;79.50;;;;;;5027629;28;20049;-47
2022/07/03 02:59:55;;;;;;;3.95;2.30;;;18.80;79.70;;;;;;5036778;28;20022;-46
2022/07/03 03:02:51;;;;;;;2.60;2.40;;;18.70;79.70;;;;;;5025532;28;21120;-46
2022/07/03 03:05:26;;;;;;;4.70;2.45;;;18.70;80.00;;;;;;5021472;28;20541;-46
2022/07/03 03:08:01;;;;;;;2.25;2.05;;;18.70;81.10;;;;;;5022388;28;20033;-48
2022/07/03 03:10:27;;;;;;;4.75;2.20;;;18.60;80.50;;;;;;5022991;28;20026;-45
2022/07/03 03:13:03;;;;;;;5.72;2.35;;;18.60;80.50;;;;;;5015299;28;20045;-46
2022/07/03 03:15:33;;;;;;;2.28;2.08;;;18.60;81.20;;;;;;5029567;28;20052;-46
2022/07/03 03:18:07;;;;;;;5.10;2.53;;;18.60;81.00;;;;;;5044561;28;20565;-45
2022/07/03 03:20:38;;;;;;;2.65;2.35;;;18.60;81.70;;;;;;5043290;28;20275;-47
2022/07/03 03:23:15;;;;;;;3.58;2.30;;;18.50;83.10;;;;;;5043651;28;20013;-46
2022/07/03 03:25:40;;;;;;;3.38;2.50;;;18.50;82.80;;;;;;5051345;28;20456;-46
2022/07/03 03:28:06;;;;;;;3.10;2.67;;;18.40;83.80;;;;;;5036703;28;20025;-45
2022/07/03 03:30:31;;;;;;;2.50;2.30;;;18.40;83.10;;;;;;5028137;28;20172;-45
2022/07/03 03:32:57;;;;;;;6.07;2.50;;;18.40;82.90;;;;;;5022521;28;20080;-46
2022/07/03 03:35:22;;;;;;;3.17;2.40;;;18.40;83.00;;;;;;5021292;28;20022;-45
2022/07/03 03:37:49;;;;;;;3.28;2.42;;;18.40;83.20;;;;;;5025062;28;20037;-46
2022/07/03 03:40:16;;;;;;;5.88;2.80;;;18.40;83.30;;;;;;5030175;28;20029;-47
2022/07/03 03:42:42;;;;;;;2.80;2.17;;;18.40;83.70;;;;;;5032035;28;20110;-48
2022/07/03 03:45:08;;;;;;;2.97;2.38;;;18.40;83.70;;;;;;5031188;28;20026;-46
2022/07/03 03:47:34;;;;;;;2.90;2.60;;;18.40;84.20;;;;;;5031824;28;20028;-47
2022/07/03 03:50:01;;;;;;;2.67;2.33;;;18.40;84.00;;;;;;5031637;28;20055;-46
2022/07/03 03:52:28;;;;;;;3.65;2.80;;;18.50;84.90;;;;;;5031479;28;20029;-49
2022/07/03 03:54:53;;;;;;;4.95;2.35;;;18.40;86.10;;;;;;5030744;28;20036;-47
2022/07/03 03:57:20;;;;;;;2.95;2.25;;;18.30;84.70;;;;;;5031568;28;20021;-46
2022/07/03 03:59:46;;;;;;;3.67;2.50;;;18.30;84.70;;;;;;5023699;28;20040;-46
2022/07/03 04:02:12;;;;;;;3.28;2.40;;;18.40;84.90;;;;;;5021009;28;20022;-46
2022/07/03 04:04:38;;;;;;;2.72;2.15;;;18.30;86.00;;;;;;5019717;28;20030;-45
2022/07/03 04:07:04;;;;;;;2.80;2.47;;;18.20;86.10;;;;;;5026204;28;20494;-47
2022/07/03 04:09:30;;;;;;;2.28;2.10;;;18.10;87.10;;;;;;5029356;28;20026;-45
2022/07/03 04:11:56;;;;;;;4.88;2.97;;;18.20;86.50;;;;;;5020954;28;20075;-45
2022/07/03 04:14:22;;;;;;;3.58;2.97;;;18.20;86.40;;;;;;5021259;28;20184;-45
2022/07/03 04:16:47;;;;;;;3.25;2.55;;;18.10;88.10;;;;;;5019617;28;20026;-45
2022/07/03 04:19:14;;;;;;;4.22;2.78;;;18.10;88.80;;;;;;5021134;28;20402;-45
2022/07/03 04:21:40;;;;;;;4.22;2.83;;;18.10;89.10;;;;;;5019893;28;20280;-46
2022/07/03 04:24:05;;;;;;;2.67;2.47;;;18.10;90.10;;;;;;5020479;28;20033;-45
2022/07/03 04:26:31;;;;;;;2.65;2.38;;;18.00;90.20;;;;;;5020356;28;20553;-46
2022/07/03 04:28:56;;;;;;;2.90;2.60;;;18.00;90.60;;;;;;5013572;28;20065;-46
2022/07/03 04:31:22;;;;;;;4.03;3.20;;;18.00;90.70;;;;;;5011108;28;20088;-46
2022/07/03 04:33:47;;;;;;;2.67;2.47;;;18.10;91.30;;;;;;5009592;28;20314;-45
2022/07/03 04:36:13;;;;;;;3.25;2.40;;;18.10;91.30;;;;;;5010182;28;20032;-46
2022/07/03 04:38:38;;;;;;;4.00;3.30;;;18.10;91.30;;;;;;5040202;28;20021;-45
2022/07/03 04:41:04;;;;;;;4.30;3.53;;;18.10;90.40;;;;;;5050743;28;20020;-45
2022/07/03 04:43:29;;;;;;;3.88;2.90;;;18.20;90.40;;;;;;5050562;28;20057;-44
2022/07/03 04:45:55;;;;;;;4.10;2.97;;;18.20;90.60;;;;;;5050281;28;20039;-46
2022/07/03 04:48:20;;;;;;;3.53;2.90;;;18.30;91.10;;;;;;5050588;28;20033;-45
2022/07/03 04:50:46;;;;;;;3.90;2.70;;;18.30;90.60;;;;;;5050470;28;20112;-46
2022/07/03 04:53:11;;;;;;;3.10;2.63;;;18.40;90.60;;;;;;5050288;28;20089;-46
2022/07/03 04:55:37;;;;;;;2.50;2.28;;;18.40;91.10;;;;;;5040554;28;20033;-49
2022/07/03 04:58:02;;;;;;;3.30;2.50;;;18.50;90.80;;;;;;5043252;28;20108;-46
2022/07/03 05:00:28;;;;;;;4.18;2.75;;;18.50;90.90;;;;;;5050289;28;20037;-46
2022/07/03 05:02:54;;;;;;;2.92;2.63;;;18.60;91.30;;;;;;5050394;28;20028;-46
2022/07/03 05:05:19;;;;;;;3.38;2.58;;;18.50;91.80;;;;;;5049668;28;20037;-47
2022/07/03 05:07:45;;;;;;;3.72;2.78;;;18.60;91.40;;;;;;5050199;28;20112;-46
2022/07/03 05:10:10;;;;;;;4.55;2.85;;;18.60;91.60;;;;;;5045317;28;20411;-46
2022/07/03 05:12:36;;;;;;;2.67;2.47;;;18.60;91.80;;;;;;5034842;28;20431;-46
2022/07/03 05:15:02;;;;;;;3.53;2.92;;;18.60;91.40;;;;;;5029254;28;20056;-46
2022/07/03 05:17:27;;;;;;;5.03;2.45;;;18.70;91.30;;;;;;5030011;28;20029;-49
2022/07/03 05:20:23;;;;;;;2.83;2.50;;;18.70;91.40;;;;;;5029271;28;20060;-47
2022/07/03 05:22:38;;;;;;;4.55;2.75;;;18.80;91.60;;;;;;5029646;28;20171;-46
2022/07/03 05:25:04;;;;;;;2.67;2.30;;;18.90;91.50;;;;;;5029487;28;20550;-46
2022/07/03 05:27:30;;;;;;;2.20;2.00;;;19.00;91.30;;;;;;5029800;28;20495;-48
2022/07/03 05:29:55;;;;;;;3.38;2.55;;;19.10;91.00;;;;;;5029646;28;20114;-46
2022/07/03 05:32:21;;;;;;;3.38;2.38;;;19.30;90.40;;;;;;5019923;28;20029;-46
2022/07/03 05:34:46;;;;;;;3.53;2.38;;;19.40;90.20;;;;;;5019586;28;20040;-46
2022/07/03 05:37:11;;;;;;;2.72;2.10;;;19.60;89.90;;;;;;5017895;28;20080;-45
2022/07/03 05:39:37;;;;;;;6.38;2.65;;;19.80;89.70;;;;;;5027779;28;20040;-46
2022/07/03 05:42:04;;;;;;;2.60;2.40;;;19.90;89.40;;;;;;5024233;28;20391;-46
2022/07/03 05:44:29;;;;;;;2.65;2.13;;;20.00;88.30;;;;;;5020694;28;20395;-47
2022/07/03 05:46:55;;;;;;;2.22;2.00;;;20.10;88.00;;;;;;5018668;28;20026;-46
2022/07/03 05:49:21;;;;;;;2.60;2.00;;;20.10;87.70;;;;;;5019399;28;20041;-46
2022/07/03 05:51:46;;;;;;;2.60;2.30;;;20.10;88.70;;;;;;5017658;28;20030;-45
2022/07/03 05:54:12;;;;;;;3.20;2.55;;;20.10;88.70;;;;;;5017625;28;20095;-46
2022/07/03 05:56:37;;;;;;;2.60;2.25;;;20.00;90.20;;;;;;5010111;28;20061;-45
2022/07/03 05:59:03;;;;;;;1.90;1.80;;;20.00;90.50;;;;;;5009537;28;20080;-45
2022/07/03 06:01:28;;;;;;;2.70;2.30;;;20.00;90.60;;;;;;5026468;28;20017;-46
2022/07/03 06:03:54;;;;;;;2.95;2.40;;;20.00;90.00;;;;;;5031329;28;20043;-45
2022/07/03 06:06:20;;;;;;;3.15;2.50;;;20.00;89.80;;;;;;5040418;28;20375;-46
2022/07/03 06:08:46;;;;;;;2.60;2.13;;;20.00;90.00;;;;;;5043243;28;20032;-46
2022/07/03 06:11:11;;;;;;;2.58;2.38;;;20.10;90.20;;;;;;5030361;28;20025;-46
2022/07/03 06:13:37;;;;;;;2.53;2.10;;;20.10;90.20;;;;;;5019454;28;20033;-46
2022/07/03 06:16:02;;;;;;;5.75;2.30;;;20.10;90.00;;;;;;5039523;28;20029;-46
2022/07/03 06:18:28;;;;;;;2.55;2.35;;;20.20;89.90;;;;;;5044979;28;20064;-46
2022/07/03 06:20:53;;;;;;;2.45;2.15;;;20.30;90.10;;;;;;5031791;28;20501;-47
2022/07/03 06:23:19;;;;;;;3.75;2.50;;;20.30;90.20;;;;;;5026133;28;20064;-47
2022/07/03 06:25:44;;;;;;;4.00;2.67;;;20.40;90.20;;;;;;5029142;28;20021;-46
2022/07/03 06:28:10;;;;;;;2.72;1.98;;;20.50;90.10;;;;;;5035642;28;20021;-46
2022/07/03 06:30:37;;;;;;;2.20;1.98;;;20.50;89.30;;;;;;5042585;28;20033;-46
2022/07/03 06:33:02;;;;;;;3.08;2.10;;;20.70;89.00;;;;;;5037619;28;20056;-45
2022/07/03 06:35:28;;;;;;;5.78;2.10;;;20.80;88.30;;;;;;5010942;28;20423;-45
2022/07/03 06:37:53;;;;;;;2.08;1.92;;;20.90;88.80;;;;;;5035353;28;20111;-46
2022/07/03 06:40:19;;;;;;;3.08;2.00;;;20.90;88.30;;;;;;5018709;28;20106;-46
2022/07/03 06:42:44;;;;;;;3.28;2.13;;;21.10;88.30;;;;;;5031903;28;20029;-46
2022/07/03 06:45:10;;;;;;;2.30;2.10;;;21.10;88.20;;;;;;5018899;28;20025;-46
2022/07/03 06:47:39;;;;;;;2.22;2.03;;;21.20;88.00;;;;;;5026258;28;20029;-46
2022/07/03 06:50:05;;;;;;;2.30;2.10;;;21.30;88.30;;;;;;5017423;28;20054;-46
2022/07/03 06:52:31;;;;;;;2.92;1.88;;;21.40;87.80;;;;;;5023145;28;20035;-46
2022/07/03 06:54:57;;;;;;;2.00;1.80;;;21.50;87.70;;;;;;5025297;28;20507;-49
2022/07/03 06:57:23;;;;;;;2.58;2.10;;;21.60;86.80;;;;;;5020584;28;20053;-46
2022/07/03 06:59:48;;;;;;;2.78;2.58;;;21.70;86.70;;;;;;5018649;28;20487;-49
2022/07/03 07:02:14;;;;;;;2.33;2.13;;;21.90;87.30;;;;;;5022525;28;20052;-48
2022/07/03 07:04:40;;;;;;;2.55;1.80;;;21.90;86.40;;;;;;5023579;28;20084;-46
2022/07/03 07:07:06;;;;;;;2.17;1.95;;;22.20;82.40;;;;;;5022129;28;20026;-47
2022/07/03 07:09:32;;;;;;;1.92;1.70;;;22.40;82.20;;;;;;5025246;28;20433;-47
2022/07/03 07:11:57;;;;;;;3.72;1.60;;;22.60;78.90;;;;;;5019138;28;20502;-46
2022/07/03 07:14:23;;;;;;;3.15;1.75;;;22.80;76.20;;;;;;5018508;28;20403;-46
2022/07/03 07:16:48;;;;;;;2.90;1.80;;;23.00;75.00;;;;;;5022752;28;20021;-47
2022/07/03 07:19:14;;;;;;;2.20;1.73;;;23.10;73.60;;;;;;5022328;28;20025;-47
2022/07/03 07:21:39;;;;;;;2.20;1.40;;;23.30;73.40;;;;;;5025025;28;20032;-45
2022/07/03 07:24:05;;;;;;;2.08;1.65;;;23.50;71.30;;;;;;5031203;28;20078;-46
2022/07/03 07:26:31;;;;;;;4.80;1.67;;;23.60;72.30;;;;;;5039949;28;20029;-46
2022/07/03 07:28:56;;;;;;;4.45;1.55;;;23.80;72.30;;;;;;5044924;28;20028;-46
2022/07/03 07:31:22;;;;;;;5.25;1.80;;;23.90;71.90;;;;;;5036354;28;20029;-46
2022/07/03 07:33:47;;;;;;;4.57;1.60;;;24.10;72.60;;;;;;5046869;28;20045;-46
2022/07/03 07:36:13;;;;;;;2.88;1.30;;;24.10;71.40;;;;;;5038053;28;20447;-46
2022/07/03 07:38:38;;;;;;;2.45;1.70;;;24.30;70.00;;;;;;5045739;28;20104;-49
2022/07/03 07:41:04;;;;;;;7.93;1.88;;;24.50;69.10;;;;;;5041099;28;20018;-45
2022/07/03 07:43:29;;;;;;;1.60;1.50;;;24.70;68.80;;;;;;5042801;28;20017;-44
2022/07/03 07:45:55;;;;;;;2.08;1.70;;;24.80;67.60;;;;;;5048689;28;20057;-45
2022/07/03 07:48:20;;;;;;;1.92;1.40;;;24.90;67.60;;;;;;5043349;28;20355;-45
2022/07/03 07:50:46;;;;;;;3.10;1.52;;;24.90;67.60;;;;;;5051651;28;20056;-47
2022/07/03 07:53:11;;;;;;;5.60;1.30;;;25.10;68.00;;;;;;5040651;28;20071;-47
2022/07/03 07:55:37;;;;;;;2.30;1.40;;;25.20;67.60;;;;;;5048699;28;20032;-45
2022/07/03 07:58:02;;;;;;;2.50;1.50;;;25.30;66.50;;;;;;5047897;28;20013;-44
2022/07/03 08:00:28;;;;;;;2.70;1.30;;;25.50;66.90;;;;;;5041513;28;20036;-46
2022/07/03 08:05:38;;;;;;;2.83;2.47;;;25.70;65.80;;;;;;5040143;28;20526;-45
2022/07/03 08:08:15;;;;;;;2.47;1.63;;;25.80;63.80;;;;;;5050773;28;20048;-47
2022/07/03 08:10:46;;;;;;;3.28;1.50;;;25.90;63.80;;;;;;5039095;28;20028;-46
2022/07/03 08:13:15;;;;;;;2.38;1.67;;;26.10;63.80;;;;;;5050535;28;20036;-45
2022/07/03 08:15:42;;;;;;;2.23;1.30;;;26.50;64.30;;;;;;5040320;28;20025;-48
2022/07/03 08:18:08;;;;;;;1.50;1.20;;;27.40;61.10;;;;;;5050467;28;20021;-49
2022/07/03 08:20:35;;;;;;;1.88;1.08;;;28.40;60.50;;;;;;5043467;28;20071;-44
2022/07/03 08:23:00;;;;;;;1.75;1.30;;;29.80;57.20;;;;;;5043516;28;20474;-47
2022/07/03 08:25:26;;;;;;;1.67;1.25;;;30.70;55.60;;;;;;5031379;28;20041;-46
2022/07/03 08:27:52;;;;;;;3.05;1.20;;;31.80;52.10;;;;;;5026191;28;20020;-48
2022/07/03 08:30:17;;;;;;;1.92;1.20;;;31.70;53.30;;;;;;5021031;28;20060;-46
2022/07/03 08:32:44;;;;;;;3.83;1.20;;;31.90;52.20;;;;;;5027563;28;20102;-48
2022/07/03 08:35:10;;;;;;;2.63;1.30;;;32.70;51.10;;;;;;5020402;28;20022;-47
2022/07/03 08:37:35;;;;;;;1.65;1.35;;;33.20;50.60;;;;;;5025937;28;20033;-47
2022/07/03 08:40:03;;;;;;;1.45;1.17;;;33.60;49.70;;;;;;5024870;28;20044;-46
2022/07/03 08:42:30;;;;;;;1.10;1.00;;;33.90;49.30;;;;;;5022845;28;20076;-47
2022/07/03 08:44:58;;;;;;;1.63;1.20;;;34.80;49.00;;;;;;5026924;28;20116;-47
2022/07/03 08:47:25;;;;;;;1.63;0.95;;;35.30;47.90;;;;;;5020374;28;20579;-46
2022/07/03 08:49:51;;;;;;;2.47;1.30;;;36.10;46.70;;;;;;5025246;28;20391;-49
2022/07/03 08:52:17;;;;;;;2.63;1.08;;;36.30;45.50;;;;;;5030444;28;20483;-46
2022/07/03 08:54:42;;;;;;;1.60;1.20;;;36.30;44.90;;;;;;5035905;28;20057;-46
2022/07/03 08:57:11;;;;;;;1.90;1.23;;;36.60;45.20;;;;;;5044059;28;20100;-47
2022/07/03 08:59:38;;;;;;;2.55;1.27;;;36.40;45.00;;;;;;5043819;28;20021;-46
2022/07/03 09:02:05;;;;;;;2.40;1.23;;;36.80;44.70;;;;;;5043092;28;20083;-51
2022/07/03 09:04:31;;;;;;;2.83;1.58;;;37.30;44.50;;;;;;5046357;28;20028;-47
2022/07/03 09:06:59;;;;;;;1.52;1.15;;;37.60;44.10;;;;;;5042008;28;20263;-46
2022/07/03 09:09:24;;;;;;;3.78;1.38;;;38.00;45.50;;;;;;5049941;28;20031;-46
2022/07/03 09:11:51;;;;;;;1.33;1.20;;;38.50;43.90;;;;;;5038804;28;20101;-47
2022/07/03 09:14:16;;;;;;;2.58;1.25;;;39.00;42.50;;;;;;5044202;28;20036;-48
2022/07/03 09:16:42;;;;;;;1.05;0.90;;;39.40;42.30;;;;;;5042802;28;20020;-47
2022/07/03 09:19:08;;;;;;;1.15;1.05;;;38.50;43.40;;;;;;5043283;28;20390;-48
2022/07/03 09:21:41;;;;;;;6.47;1.08;;;38.40;42.70;;;;;;5039494;28;20071;-46
2022/07/03 09:24:08;;;;;;;3.13;1.02;;;38.00;42.10;;;;;;5040533;28;20490;-46
2022/07/03 09:26:35;;;;;;;0.73;0.70;;;38.30;42.80;;;;;;5049731;28;20040;-49
2022/07/03 09:29:01;;;;;;;1.83;1.17;;;38.60;42.70;;;;;;5037149;28;20013;-47
2022/07/03 09:31:29;;;;;;;2.97;1.00;;;39.50;42.20;;;;;;5040937;28;20586;-46
2022/07/03 09:34:07;;;;;;;1.57;0.80;;;39.50;40.30;;;;;;5047840;28;20078;-47
2022/07/03 09:36:43;;;;;;;0.98;0.93;;;39.70;42.30;;;;;;5035306;28;20014;-47
2022/07/03 09:39:34;;;;;;;3.72;0.98;;;37.90;42.00;;;;;;5048177;28;20074;-46
2022/07/03 09:41:59;;;;;;;2.25;0.88;;;38.50;43.60;;;;;;5040219;28;20096;-48
2022/07/03 09:44:45;;;;;;;3.22;0.93;;;38.60;43.50;;;;;;5044943;28;20686;-46
2022/07/03 09:47:19;;;;;;;2.15;1.23;;;39.30;41.40;;;;;;5049462;28;20395;-46
2022/07/03 09:50:05;;;;;;;1.65;0.95;;;39.90;41.50;;;;;;5049810;28;20275;-46
2022/07/03 09:52:34;;;;;;;2.75;0.90;;;40.40;40.70;;;;;;5039460;28;20028;-48
2022/07/03 09:55:11;;;;;;;2.15;0.90;;;40.30;41.60;;;;;;5041212;28;20475;-47
2022/07/03 09:58:00;;;;;;;1.05;0.70;;;41.00;40.00;;;;;;5043611;28;20029;-46
2022/07/03 10:00:27;;;;;;;2.28;0.80;;;41.00;38.90;;;;;;5038678;28;20435;-46
2022/07/03 10:02:53;;;;;;;3.30;1.23;;;41.50;40.10;;;;;;5043551;28;20018;-46
2022/07/03 10:05:20;;;;;;;2.17;1.00;;;41.40;38.70;;;;;;5043484;28;20043;-47
2022/07/03 10:07:59;;;;;;;1.10;0.80;;;41.10;40.00;;;;;;5042111;28;20021;-48
2022/07/03 10:10:30;;;;;;;3.20;1.10;;;41.10;40.10;;;;;;5029215;28;20036;-46
2022/07/03 10:12:56;;;;;;;2.35;0.88;;;40.50;38.20;;;;;;5025059;28;20037;-46
2022/07/03 10:15:23;;;;;;;2.70;0.93;;;41.00;39.00;;;;;;5039428;28;20024;-47
2022/07/03 10:17:54;;;;;;;2.08;1.15;;;40.50;37.80;;;;;;5048937;28;20028;-46
2022/07/03 10:20:25;;;;;;;1.15;0.82;;;40.90;39.30;;;;;;5044655;28;20463;-46
2022/07/03 10:22:51;;;;;;;3.90;1.75;;;40.60;38.20;;;;;;5040497;28;20029;-46
2022/07/03 10:25:18;;;;;;;2.47;1.17;;;40.90;40.10;;;;;;5045452;28;20029;-45
2022/07/03 10:27:45;;;;;;;1.15;0.95;;;40.90;38.60;;;;;;5039238;28;20035;-47
2022/07/03 10:30:11;;;;;;;1.02;0.93;;;40.70;38.70;;;;;;5047454;28;20150;-45
2022/07/03 10:32:38;;;;;;;1.77;1.02;;;40.90;40.00;;;;;;5024631;28;20017;-45
2022/07/03 10:35:04;;;;;;;2.10;0.70;;;40.70;39.00;;;;;;5021277;28;20017;-47
2022/07/03 10:37:54;;;;;;;1.05;0.98;;;40.50;39.10;;;;;;5018998;28;20021;-47
2022/07/03 10:46:28;;;;;;;0.73;0.70;;;41.40;37.90;;;;;;5043624;28;20051;-46
2022/07/03 10:49:12;;;;;;;1.60;1.00;;;40.00;38.60;;;;;;5047883;28;20301;-46
2022/07/03 10:51:58;;;;;;;1.85;0.90;;;38.30;39.00;;;;;;5045472;28;20029;-46
2022/07/03 10:54:34;;;;;;;3.40;1.20;;;36.30;41.80;;;;;;5037956;28;20506;-45
2022/07/03 10:57:02;;;;;;;1.05;0.90;;;35.30;43.40;;;;;;5028885;28;20032;-46
2022/07/03 10:59:44;;;;;;;0.82;0.75;;;36.30;43.50;;;;;;5026823;28;20033;-46
2022/07/03 11:02:31;;;;;;;3.03;1.23;;;36.60;41.80;;;;;;5034633;28;20025;-47
2022/07/03 11:04:57;;;;;;;2.45;1.17;;;36.80;41.20;;;;;;5007499;28;20038;-48
2022/07/03 11:07:23;;;;;;;3.75;1.42;;;38.00;42.00;;;;;;5007167;28;20037;-45
2022/07/03 11:10:13;;;;;;;2.50;0.80;;;38.90;39.80;;;;;;5016085;28;20167;-47
2022/07/03 11:13:08;;;;;;;3.13;0.95;;;39.00;41.40;;;;;;5036711;28;20037;-46
2022/07/03 11:15:47;;;;;;;1.60;0.95;;;40.00;39.10;;;;;;5044050;28;20483;-46
2022/07/03 11:18:15;;;;;;;;;;;40.60;39.50;;;;;;5041349;28;20017;-49
2022/07/03 11:20:44;;;;;;;0.80;0.80;;;39.50;38.20;;;;;;5052103;28;19997;-45
2022/07/03 11:23:09;;;;;;;0.97;0.80;;;40.20;39.30;;;;;;5045221;28;20028;-46
2022/07/03 11:25:49;;;;;;;1.35;0.90;;;40.70;37.70;;;;;;5042378;28;20505;-47
2022/07/03 11:28:33;;;;;;;1.83;0.88;;;38.90;38.30;;;;;;5048645;28;20044;-46
2022/07/03 11:31:11;;;;;;;2.65;1.45;;;38.00;40.90;;;;;;5032353;28;20442;-46
2022/07/03 11:33:46;;;;;;;2.67;0.88;;;38.00;40.50;;;;;;5031482;28;20108;-47
2022/07/03 11:36:28;;;;;;;1.25;1.00;;;37.90;39.70;;;;;;5033629;28;20029;-47
2022/07/03 11:39:02;;;;;;;1.30;1.20;;;37.30;40.60;;;;;;5035328;28;20569;-45
2022/07/03 11:41:30;;;;;;;1.23;0.82;;;38.10;40.20;;;;;;5041013;28;20025;-46
2022/07/03 11:43:58;;;;;;;3.42;1.08;;;38.60;39.90;;;;;;5032797;28;20081;-46
2022/07/03 11:46:29;;;;;;;2.08;0.90;;;39.40;39.80;;;;;;5025994;28;20040;-45
2022/07/03 11:49:05;;;;;;;1.15;0.90;;;39.90;38.80;;;;;;5031775;28;20495;-48
2022/07/03 11:51:31;;;;;;;2.10;1.10;;;40.10;38.20;;;;;;5031470;28;20025;-46
2022/07/03 11:53:56;;;;;;;1.73;0.95;;;38.80;38.10;;;;;;5032541;28;20028;-46
2022/07/03 11:56:23;;;;;;;2.55;1.23;;;38.10;39.40;;;;;;5041872;28;20606;-45
2022/07/03 11:58:51;;;;;;;1.42;1.13;;;38.30;40.50;;;;;;5047668;28;20036;-45
2022/07/03 12:01:26;;;;;;;2.60;1.00;;;36.70;41.10;;;;;;5037601;28;20303;-45
2022/07/03 12:04:05;;;;;;;0.70;0.70;;;37.00;40.50;;;;;;5050083;28;20025;-45
2022/07/03 12:06:39;;;;;;;0.73;0.73;;;37.80;39.40;;;;;;5041286;28;20080;-48
2022/07/03 12:09:13;;;;;;;2.58;0.95;;;37.30;41.00;;;;;;5044518;28;20091;-46
2022/07/03 12:11:39;;;;;;;1.00;1.00;;;37.40;39.40;;;;;;5040433;28;20025;-45
2022/07/03 12:14:04;;;;;;;4.07;0.95;;;36.60;39.30;;;;;;5043105;28;20164;-46
2022/07/03 12:16:32;;;;;;;2.15;1.10;;;36.30;40.70;;;;;;5045582;28;20046;-45
2022/07/03 12:19:04;;;;;;;2.85;1.10;;;36.30;40.10;;;;;;5043157;28;20063;-46
2022/07/03 12:21:37;;;;;;;2.90;1.08;;;36.10;40.00;;;;;;5050590;28;20021;-46
2022/07/03 12:24:09;;;;;;;2.45;1.10;;;36.10;40.90;;;;;;5041209;28;20056;-46
2022/07/03 12:26:36;;;;;;;1.60;0.90;;;35.80;41.40;;;;;;5042154;28;20127;-46
2022/07/03 12:29:08;;;;;;;0.90;0.90;;;36.00;40.60;;;;;;5049175;28;20104;-45
2022/07/03 12:31:34;;;;;;;4.95;1.10;;;35.40;42.10;;;;;;5038325;28;20029;-46
2022/07/03 12:34:00;;;;;;;1.10;1.00;;;35.00;43.40;;;;;;5050237;28;20397;-46
2022/07/03 12:36:27;;;;;;;3.50;1.17;;;35.20;44.10;;;;;;5045572;28;20046;-47
2022/07/03 12:38:54;;;;;;;2.05;1.40;;;35.30;42.90;;;;;;5041960;28;20028;-46
2022/07/03 12:41:20;;;;;;;0.85;0.70;;;35.50;42.20;;;;;;5047303;28;20017;-46
2022/07/03 12:43:48;;;;;;;3.00;2.45;;;34.70;42.20;;;;;;5039850;28;20091;-46
2022/07/03 12:46:23;;;;;;;5.15;3.17;;;34.20;43.80;;;;;;5034119;28;20510;-46
2022/07/03 12:48:54;;;;;;;1.75;1.40;;;33.80;43.60;;;;;;5035670;28;20314;-48
2022/07/03 12:51:45;;;;;;;4.57;1.20;;;32.70;44.00;;;;;;5030127;28;20398;-45
2022/07/03 12:54:15;;;;;;;2.25;1.20;;;32.20;46.00;;;;;;5032382;28;20027;-45
2022/07/03 12:56:44;;;;;;;5.85;1.40;;;32.20;46.40;;;;;;5041107;28;20421;-45
2022/07/03 12:59:26;;;;;;;4.32;1.30;;;31.60;46.80;;;;;;5049905;28;20091;-46
2022/07/03 13:02:05;;;;;;;3.38;1.25;;;30.70;46.60;;;;;;5041485;28;20029;-46
2022/07/03 13:04:36;;;;;;;1.85;1.50;;;31.30;48.10;;;;;;5044738;28;20501;-46
2022/07/03 13:07:04;;;;;;;1.50;1.13;;;31.50;47.00;;;;;;5036034;28;20029;-45
2022/07/03 13:09:29;;;;;;;2.42;1.25;;;31.20;47.80;;;;;;5046440;28;20056;-47